Time;durP1;ratioP1;P1;durP2;ratioP2;P2;SDS_P1;SDS_P2;PMS_P1;PMS_P2;Temp;Humidity;BMP_temperature;BMP_pressure;BME280_temperature;BME280_humidity;BME280_pressure;Samples;Min_cycle;Max_cycle;Signal;HPM_P1;HPM_P2
2021/03/27 00:01:38;;;;;;;19.53;8.57;;;12.00;99.90;;;;;;5081200;27;20867;-78
2021/03/27 00:04:25;;;;;;;12.80;8.50;;;12.00;99.90;;;;;;5086294;27;20486;-78
2021/03/27 00:06:55;;;;;;;13.20;9.30;;;11.60;99.90;;;;;;5093562;28;20516;-78
2021/03/27 00:09:36;;;;;;;14.87;8.30;;;10.60;99.90;;;;;;5109746;27;20385;-79
2021/03/27 00:12:09;;;;;;;13.90;10.13;;;10.10;99.90;;;;;;5077881;27;20431;-79
2021/03/27 00:14:47;;;;;;;11.73;9.00;;;9.70;99.90;;;;;;5086598;27;20538;-79
2021/03/27 00:17:24;;;;;;;19.57;9.30;;;9.60;99.90;;;;;;5091636;27;20413;-79
2021/03/27 00:20:01;;;;;;;11.40;9.07;;;9.40;99.90;;;;;;5064867;27;20543;-77
2021/03/27 00:22:44;;;;;;;9.63;5.97;;;9.10;99.90;;;;;;5091238;27;20398;-78
2021/03/27 00:25:27;;;;;;;5.93;5.10;;;8.90;99.90;;;;;;5088801;27;20446;-78
2021/03/27 00:27:56;;;;;;;10.27;6.37;;;8.80;99.90;;;;;;5091364;27;20381;-79
2021/03/27 00:30:39;;;;;;;6.80;5.53;;;8.70;99.90;;;;;;5093944;27;20430;-78
2021/03/27 00:33:07;;;;;;;9.50;6.83;;;8.70;99.90;;;;;;5110336;27;20423;-79
2021/03/27 00:35:38;;;;;;;8.73;7.23;;;8.50;99.90;;;;;;5089162;27;21017;-79
2021/03/27 00:38:12;;;;;;;8.20;7.47;;;8.50;99.90;;;;;;5111386;27;20387;-78
2021/03/27 00:40:45;;;;;;;9.10;6.70;;;8.40;99.90;;;;;;5087417;27;20410;-78
2021/03/27 00:43:43;;;;;;;8.70;6.50;;;8.40;99.90;;;;;;5085202;27;20397;-78
2021/03/27 00:46:11;;;;;;;9.20;6.90;;;8.30;99.90;;;;;;5076815;27;21152;-78
2021/03/27 00:48:47;;;;;;;9.43;8.47;;;8.10;99.90;;;;;;5092265;28;20387;-78
2021/03/27 00:51:18;;;;;;;8.47;7.30;;;7.70;99.90;;;;;;5084222;27;20440;-78
2021/03/27 00:53:51;;;;;;;9.33;8.03;;;7.50;99.90;;;;;;5106558;27;20446;-78
2021/03/27 00:56:40;;;;;;;8.93;7.83;;;7.40;99.90;;;;;;5106023;27;20756;-79
2021/03/27 00:59:26;;;;;;;11.93;10.17;;;7.20;99.90;;;;;;5112833;27;21286;-78
2021/03/27 01:01:54;;;;;;;13.33;9.60;;;7.00;99.90;;;;;;5071587;28;21365;-78
2021/03/27 01:04:22;;;;;;;11.03;7.43;;;7.00;99.90;;;;;;5071828;28;20398;-78
2021/03/27 01:06:53;;;;;;;10.43;6.50;;;6.90;99.90;;;;;;5092338;28;20458;-78
2021/03/27 01:09:26;;;;;;;9.67;6.20;;;6.80;99.90;;;;;;5066282;28;21149;-77
2021/03/27 01:12:03;;;;;;;8.60;5.43;;;6.70;99.90;;;;;;5080726;28;21199;-77
2021/03/27 01:14:37;;;;;;;7.53;5.83;;;6.60;99.90;;;;;;5060147;28;21112;-77
2021/03/27 01:17:06;;;;;;;6.90;5.00;;;6.40;99.90;;;;;;5044993;28;21032;-77
2021/03/27 01:19:43;;;;;;;6.73;5.87;;;6.50;99.90;;;;;;5063242;28;20420;-78
2021/03/27 01:22:12;;;;;;;8.10;6.50;;;6.40;99.90;;;;;;5070455;28;20444;-79
2021/03/27 01:24:38;;;;;;;8.37;6.10;;;6.30;99.90;;;;;;5073255;28;21425;-78
2021/03/27 01:27:15;;;;;;;9.47;6.90;;;6.30;99.90;;;;;;5073240;28;20524;-79
2021/03/27 01:29:51;;;;;;;11.80;9.17;;;6.30;99.90;;;;;;5061392;28;20201;-78
2021/03/27 01:32:26;;;;;;;10.43;9.03;;;6.30;99.90;;;;;;5076060;28;20939;-78
2021/03/27 01:35:13;;;;;;;13.37;9.60;;;6.30;99.90;;;;;;5075569;28;20380;-78
2021/03/27 01:37:47;;;;;;;16.97;11.80;;;6.30;99.90;;;;;;5075482;28;20385;-79
2021/03/27 01:40:25;;;;;;;11.90;10.70;;;6.30;99.90;;;;;;5073003;28;21035;-78
2021/03/27 01:43:28;;;;;;;20.53;12.00;;;6.40;99.90;;;;;;5061604;28;20508;-78
2021/03/27 01:46:07;;;;;;;10.73;8.67;;;6.30;99.90;;;;;;5075984;28;20936;-78
2021/03/27 01:49:04;;;;;;;9.67;7.77;;;6.30;99.90;;;;;;5078984;28;20408;-78
2021/03/27 01:51:42;;;;;;;12.23;8.20;;;6.30;99.90;;;;;;5065420;28;20381;-78
2021/03/27 01:54:12;;;;;;;9.60;7.53;;;6.30;99.90;;;;;;5076343;28;20994;-78
2021/03/27 01:57:00;;;;;;;8.60;6.07;;;6.20;99.90;;;;;;5084081;28;20470;-78
2021/03/27 01:59:38;;;;;;;13.17;7.90;;;6.20;99.90;;;;;;5072474;28;20405;-78
2021/03/27 02:02:25;;;;;;;10.13;7.23;;;6.20;99.90;;;;;;5079637;27;20383;-77
2021/03/27 02:05:21;;;;;;;11.40;7.43;;;6.20;99.90;;;;;;5091355;27;20635;-78
2021/03/27 02:08:20;;;;;;;14.43;7.50;;;6.20;99.90;;;;;;5067903;27;20433;-77
2021/03/27 02:10:52;;;;;;;6.20;5.13;;;6.10;99.90;;;;;;5066023;27;20405;-78
2021/03/27 02:13:34;;;;;;;10.83;6.60;;;6.10;99.90;;;;;;5078370;27;20827;-78
2021/03/27 02:16:15;;;;;;;7.03;5.87;;;6.00;99.90;;;;;;5092188;27;21287;-78
2021/03/27 02:19:00;;;;;;;10.33;9.30;;;6.10;99.90;;;;;;5091160;22;20407;-78
2021/03/27 02:21:31;;;;;;;13.53;7.40;;;6.00;99.90;;;;;;5056573;28;20401;-78
2021/03/27 02:24:22;;;;;;;13.37;9.10;;;6.00;99.90;;;;;;5051856;28;21103;-79
2021/03/27 02:27:02;;;;;;;10.90;8.97;;;6.00;99.90;;;;;;5049283;28;20385;-78
2021/03/27 02:29:43;;;;;;;12.03;9.43;;;6.00;99.90;;;;;;5071005;28;20479;-78
2021/03/27 02:32:44;;;;;;;15.90;8.67;;;6.00;99.90;;;;;;5054933;28;20420;-78
2021/03/27 02:35:34;;;;;;;10.23;6.70;;;6.00;99.90;;;;;;5026698;28;21020;-77
2021/03/27 02:38:32;;;;;;;9.77;7.80;;;5.90;99.90;;;;;;5072603;28;20385;-77
2021/03/27 02:41:18;;;;;;;13.53;6.80;;;5.90;99.90;;;;;;5068477;28;20385;-79
2021/03/27 02:43:52;;;;;;;8.27;4.93;;;5.90;99.90;;;;;;5052270;28;20422;-78
2021/03/27 02:46:42;;;;;;;11.80;4.60;;;5.90;99.90;;;;;;5088760;28;20492;-78
2021/03/27 02:49:20;;;;;;;7.50;5.07;;;5.90;99.90;;;;;;5070349;28;20365;-78
2021/03/27 02:52:31;;;;;;;5.83;4.50;;;5.90;99.90;;;;;;5070926;28;20393;-78
2021/03/27 02:55:05;;;;;;;10.30;5.23;;;5.90;99.90;;;;;;4987203;28;20443;-78
2021/03/27 02:57:36;;;;;;;8.30;5.37;;;5.80;99.90;;;;;;4989507;28;20439;-78
2021/03/27 03:00:11;;;;;;;5.87;5.27;;;5.90;99.90;;;;;;4993203;28;20397;-78
2021/03/27 03:02:55;;;;;;;7.93;5.20;;;5.90;99.90;;;;;;4985886;28;20456;-77
2021/03/27 03:05:42;;;;;;;17.20;4.77;;;5.90;99.90;;;;;;4978770;28;20486;-78
2021/03/27 03:08:11;;;;;;;7.03;3.97;;;5.90;99.90;;;;;;4973720;28;20385;-78
2021/03/27 03:10:49;;;;;;;6.50;3.50;;;6.00;99.90;;;;;;4989731;28;20485;-78
2021/03/27 03:13:26;;;;;;;10.23;5.30;;;6.00;99.90;;;;;;4982002;28;20443;-78
2021/03/27 03:16:33;;;;;;;8.50;4.50;;;6.00;99.90;;;;;;5005981;28;20461;-78
2021/03/27 03:19:18;;;;;;;7.37;5.17;;;6.00;99.90;;;;;;4969322;28;20412;-78
2021/03/27 03:21:56;;;;;;;7.50;5.60;;;6.10;99.90;;;;;;4970588;28;20419;-78
2021/03/27 03:24:43;;;;;;;7.57;4.63;;;6.00;99.90;;;;;;4972055;28;20834;-79
2021/03/27 03:27:09;;;;;;;13.37;5.90;;;6.10;99.90;;;;;;4970809;28;20439;-78
2021/03/27 03:30:11;;;;;;;8.63;6.47;;;6.10;99.90;;;;;;4953760;28;20415;-78
2021/03/27 03:33:11;;;;;;;10.27;7.07;;;6.10;99.90;;;;;;5038631;28;20216;-78
2021/03/27 03:36:10;;;;;;;11.73;6.77;;;6.20;99.90;;;;;;5069553;28;20430;-78
2021/03/27 03:39:10;;;;;;;8.57;6.33;;;6.10;99.90;;;;;;5069661;28;20536;-78
2021/03/27 03:41:56;;;;;;;15.27;6.60;;;6.10;99.90;;;;;;5070461;28;20411;-78
2021/03/27 03:45:01;;;;;;;11.83;6.07;;;6.00;99.90;;;;;;5051517;28;20464;-78
2021/03/27 03:47:53;;;;;;;10.40;5.13;;;5.90;99.90;;;;;;5039016;28;20385;-78
2021/03/27 03:50:27;;;;;;;8.50;5.43;;;5.90;99.90;;;;;;5030498;28;20399;-78
2021/03/27 03:53:14;;;;;;;6.37;4.67;;;5.90;99.90;;;;;;5059181;28;20494;-79
2021/03/27 03:56:18;;;;;;;10.03;4.73;;;5.80;99.90;;;;;;5075529;27;21230;-79
2021/03/27 03:58:50;;;;;;;5.10;4.10;;;5.80;99.90;;;;;;5089300;27;20437;-79
2021/03/27 04:01:46;;;;;;;8.10;4.90;;;5.70;99.90;;;;;;5095187;28;20421;-79
2021/03/27 04:04:25;;;;;;;7.60;4.50;;;5.80;99.90;;;;;;5092484;27;20389;-79
2021/03/27 04:06:57;;;;;;;7.80;4.20;;;5.80;99.90;;;;;;5093271;28;21306;-79
2021/03/27 04:09:29;;;;;;;6.83;4.20;;;5.70;99.90;;;;;;5076350;27;20416;-79
2021/03/27 04:12:36;;;;;;;6.80;5.00;;;5.70;99.90;;;;;;5085499;27;20426;-79
2021/03/27 04:15:26;;;;;;;15.90;6.47;;;5.70;99.90;;;;;;5054389;28;20393;-79
2021/03/27 04:18:23;;;;;;;7.20;4.07;;;5.60;99.90;;;;;;5052371;28;20492;-79
2021/03/27 04:20:55;;;;;;;5.17;4.53;;;5.70;99.90;;;;;;5052244;28;20412;-79
2021/03/27 04:23:33;;;;;;;7.70;4.90;;;5.70;99.90;;;;;;5052967;28;20501;-79
2021/03/27 04:26:22;;;;;;;10.07;5.03;;;5.80;99.90;;;;;;5052877;28;20577;-79
2021/03/27 04:29:12;;;;;;;6.63;4.67;;;5.70;99.90;;;;;;5067133;28;20434;-79
2021/03/27 04:32:08;;;;;;;7.30;4.50;;;5.70;99.90;;;;;;5052992;28;20418;-79
2021/03/27 04:35:13;;;;;;;6.53;4.17;;;5.60;99.90;;;;;;5033489;28;20386;-79
2021/03/27 04:37:51;;;;;;;8.83;5.17;;;5.60;99.90;;;;;;4992373;28;21198;-79
2021/03/27 04:40:49;;;;;;;7.53;4.80;;;5.60;99.90;;;;;;4995123;28;20426;-79
2021/03/27 04:43:34;;;;;;;6.37;4.87;;;5.50;99.90;;;;;;4950719;28;20479;-79
2021/03/27 04:46:30;;;;;;;7.50;5.30;;;5.50;99.90;;;;;;4965369;28;20390;-79
2021/03/27 04:49:25;;;;;;;15.53;6.20;;;5.40;99.90;;;;;;4942669;28;20484;-79
2021/03/27 04:52:12;;;;;;;12.77;6.10;;;5.50;99.90;;;;;;4986686;28;20547;-79
2021/03/27 04:55:12;;;;;;;6.20;5.60;;;5.50;99.90;;;;;;4956167;28;20400;-79
2021/03/27 04:58:25;;;;;;;8.23;4.63;;;5.40;99.90;;;;;;4970976;28;20469;-79
2021/03/27 05:01:08;;;;;;;7.33;5.43;;;5.50;99.90;;;;;;4948191;28;20517;-79
2021/03/27 05:03:47;;;;;;;15.43;6.40;;;5.60;99.90;;;;;;5008898;28;20427;-79
2021/03/27 05:06:22;;;;;;;12.43;6.37;;;5.60;99.90;;;;;;4996065;28;21040;-79
2021/03/27 05:09:02;;;;;;;13.20;5.63;;;5.60;99.90;;;;;;4974682;28;20422;-79
2021/03/27 05:11:33;;;;;;;7.93;5.00;;;5.70;99.90;;;;;;4989122;28;20834;-79
2021/03/27 05:14:31;;;;;;;12.80;5.27;;;5.80;99.90;;;;;;4997306;28;20417;-79
2021/03/27 05:17:07;;;;;;;9.30;5.80;;;5.80;99.90;;;;;;5014871;28;21098;-78
2021/03/27 05:19:42;;;;;;;8.90;5.07;;;5.90;99.90;;;;;;5035420;28;20420;-79
2021/03/27 05:22:15;;;;;;;8.77;4.60;;;6.00;99.90;;;;;;5087559;28;21008;-79
2021/03/27 05:24:56;;;;;;;7.07;4.80;;;6.00;99.90;;;;;;5089187;28;20958;-79
2021/03/27 05:27:22;;;;;;;6.83;4.37;;;6.10;99.90;;;;;;5076560;28;20410;-79
2021/03/27 05:30:02;;;;;;;9.50;3.60;;;6.10;99.90;;;;;;5055317;28;20435;-79
2021/03/27 05:33:05;;;;;;;12.03;5.57;;;6.10;99.90;;;;;;5090669;28;20204;-79
2021/03/27 05:35:43;;;;;;;7.57;3.90;;;6.10;99.90;;;;;;5074453;28;20392;-79
2021/03/27 05:38:17;;;;;;;8.73;4.23;;;6.10;99.90;;;;;;5071819;28;20949;-79
2021/03/27 05:41:08;;;;;;;10.37;4.70;;;6.10;99.90;;;;;;5069536;28;20863;-79
2021/03/27 05:44:22;;;;;;;6.20;4.40;;;6.20;99.90;;;;;;5092012;28;20461;-79
2021/03/27 05:47:21;;;;;;;11.50;4.00;;;6.20;99.90;;;;;;5070850;28;20414;-79
2021/03/27 05:50:09;;;;;;;6.00;4.63;;;6.30;99.90;;;;;;5071326;28;20389;-79
2021/03/27 05:53:24;;;;;;;6.73;3.50;;;6.30;99.90;;;;;;5073062;28;20912;-79
2021/03/27 05:56:22;;;;;;;5.53;3.10;;;6.30;99.90;;;;;;5009202;28;20930;-79
2021/03/27 05:59:05;;;;;;;10.37;3.20;;;6.30;99.90;;;;;;4998097;28;20409;-79
2021/03/27 06:01:51;;;;;;;5.70;3.33;;;6.40;99.90;;;;;;5011481;28;20433;-79
2021/03/27 06:04:49;;;;;;;13.87;3.70;;;6.40;99.90;;;;;;4988545;28;20482;-79
2021/03/27 06:08:05;;;;;;;3.83;3.20;;;6.30;99.90;;;;;;4953314;28;21140;-79
2021/03/27 06:10:31;;;;;;;6.80;4.10;;;6.40;99.90;;;;;;4943651;28;20678;-79
2021/03/27 06:12:57;;;;;;;5.50;3.50;;;6.40;99.90;;;;;;4989063;28;20821;-79
2021/03/27 06:15:59;;;;;;;7.30;4.50;;;6.40;99.90;;;;;;5009610;28;20772;-79
2021/03/27 06:18:46;;;;;;;3.90;3.07;;;6.20;99.90;;;;;;5002244;28;20264;-79
2021/03/27 06:21:31;;;;;;;8.10;4.23;;;6.20;99.90;;;;;;5035406;28;20419;-79
2021/03/27 06:24:03;;;;;;;7.23;3.83;;;6.20;99.90;;;;;;5030051;28;21177;-79
2021/03/27 06:27:04;;;;;;;9.53;3.40;;;6.20;99.90;;;;;;5025564;28;20410;-79
2021/03/27 06:30:00;;;;;;;9.40;3.37;;;6.10;99.90;;;;;;5002414;28;20432;-80
2021/03/27 06:32:38;;;;;;;12.90;4.90;;;6.10;99.90;;;;;;5020902;28;20425;-79
2021/03/27 06:35:26;;;;;;;11.23;4.20;;;6.30;99.90;;;;;;5053231;28;20366;-79
2021/03/27 06:38:22;;;;;;;6.90;3.30;;;6.40;99.90;;;;;;5070108;28;20809;-79
2021/03/27 06:41:04;;;;;;;5.00;4.50;;;6.50;99.90;;;;;;5044969;28;20487;-79
2021/03/27 06:43:41;;;;;;;12.87;4.00;;;6.60;99.90;;;;;;5066905;28;20554;-79
2021/03/27 06:46:29;;;;;;;7.90;3.60;;;6.70;99.90;;;;;;5083199;28;20394;-79
2021/03/27 06:49:30;;;;;;;5.43;3.83;;;6.80;99.90;;;;;;5052812;28;20408;-79
2021/03/27 06:52:09;;;;;;;10.33;3.57;;;6.80;99.90;;;;;;5086025;28;21102;-80
2021/03/27 06:55:12;;;;;;;11.20;5.30;;;6.70;99.90;;;;;;5084747;28;20514;-78
2021/03/27 06:57:51;;;;;;;7.23;4.17;;;6.80;99.90;;;;;;5076973;28;20400;-79
2021/03/27 07:00:36;;;;;;;7.80;4.10;;;6.90;99.90;;;;;;5081003;28;20397;-79
2021/03/27 07:03:22;;;;;;;16.67;6.23;;;6.90;99.90;;;;;;5093158;28;20523;-80
2021/03/27 07:06:08;;;;;;;10.50;4.67;;;7.00;99.90;;;;;;5067385;28;20388;-79
2021/03/27 07:08:50;;;;;;;14.50;4.80;;;6.90;99.90;;;;;;5066256;28;20397;-79
2021/03/27 07:11:37;;;;;;;6.83;4.00;;;6.90;99.90;;;;;;5069171;28;23027;-79
2021/03/27 07:14:37;;;;;;;9.33;4.80;;;6.50;99.90;;;;;;5065945;28;20430;-78
2021/03/27 07:17:29;;;;;;;8.90;5.03;;;6.10;99.90;;;;;;5058375;28;20508;-78
2021/03/27 07:20:06;;;;;;;10.90;5.70;;;5.80;99.90;;;;;;5062708;28;21099;-78
2021/03/27 07:22:53;;;;;;;12.77;5.27;;;5.80;99.90;;;;;;5077889;28;20944;-78
2021/03/27 07:25:36;;;;;;;12.67;5.27;;;5.90;99.90;;;;;;5071171;28;20396;-78
2021/03/27 07:28:17;;;;;;;6.80;4.63;;;5.80;99.90;;;;;;5054436;28;20494;-78
2021/03/27 07:31:02;;;;;;;3.60;2.53;;;5.60;99.90;;;;;;5070934;28;20407;-78
2021/03/27 07:33:49;;;;;;;7.87;2.70;;;4.00;99.90;;;;;;5093397;27;21169;-78
2021/03/27 07:36:40;;;;;;;2.90;1.60;;;3.20;99.90;;;;;;5064106;28;20433;-79
2021/03/27 07:39:26;;;;;;;2.63;1.60;;;2.80;99.90;;;;;;5065391;28;20924;-79
2021/03/27 07:42:02;;;;;;;3.77;2.07;;;2.80;99.90;;;;;;5097189;27;20454;-79
2021/03/27 07:44:46;;;;;;;1.83;1.63;;;3.10;99.90;;;;;;5063586;28;20393;-79
2021/03/27 07:47:34;;;;;;;6.00;3.63;;;3.30;99.90;;;;;;5063611;28;20399;-78
2021/03/27 07:50:24;;;;;;;9.73;3.17;;;3.50;99.90;;;;;;5077603;28;20379;-78
2021/03/27 07:53:26;;;;;;;7.07;3.37;;;3.70;99.90;;;;;;5079810;28;21188;-79
2021/03/27 07:56:20;;;;;;;5.17;3.13;;;3.90;99.90;;;;;;5076175;28;20458;-78
2021/03/27 07:58:54;;;;;;;10.03;2.73;;;4.10;99.90;;;;;;5063777;28;21204;-78
2021/03/27 08:01:44;;;;;;;5.23;2.30;;;4.30;99.90;;;;;;5070015;28;20396;-78
2021/03/27 08:04:45;;;;;;;3.90;2.50;;;4.40;99.90;;;;;;5078697;28;20955;-78
2021/03/27 08:07:20;;;;;;;3.27;2.33;;;4.50;99.90;;;;;;5083678;28;20457;-79
2021/03/27 08:10:19;;;;;;;3.43;2.40;;;4.60;99.90;;;;;;5066387;28;20531;-78
2021/03/27 08:13:07;;;;;;;4.00;2.03;;;4.70;99.90;;;;;;5066592;28;20558;-79
2021/03/27 08:16:02;;;;;;;4.27;2.30;;;4.70;99.90;;;;;;5077633;28;20439;-78
2021/03/27 08:19:09;;;;;;;10.57;3.17;;;4.70;99.90;;;;;;5078664;28;20459;-78
2021/03/27 08:22:03;;;;;;;8.70;3.13;;;4.60;99.90;;;;;;5050420;28;20367;-79
2021/03/27 08:24:38;;;;;;;3.70;2.70;;;4.60;99.90;;;;;;5056548;28;22523;-79
2021/03/27 08:27:41;;;;;;;4.40;3.47;;;4.60;99.90;;;;;;5092884;27;20488;-78
2021/03/27 08:30:45;;;;;;;10.43;3.93;;;4.60;99.90;;;;;;5082830;28;20412;-79
2021/03/27 08:33:35;;;;;;;5.83;4.53;;;4.70;99.90;;;;;;5083183;28;20556;-79
2021/03/27 08:36:34;;;;;;;9.40;4.13;;;4.90;99.90;;;;;;5085392;28;20404;-79
2021/03/27 08:39:42;;;;;;;7.50;3.90;;;5.20;99.90;;;;;;5073625;28;20378;-79
2021/03/27 08:42:19;;;;;;;6.93;3.60;;;5.60;99.90;;;;;;5064483;28;20397;-79
2021/03/27 08:45:01;;;;;;;4.77;4.27;;;5.60;99.90;;;;;;5059233;28;20410;-79
2021/03/27 08:48:17;;;;;;;9.00;4.20;;;5.40;99.90;;;;;;5071586;28;20442;-79
2021/03/27 08:51:04;;;;;;;4.00;3.50;;;5.80;99.90;;;;;;5054481;28;20445;-79
2021/03/27 08:53:39;;;;;;;6.40;4.17;;;6.40;99.90;;;;;;5039455;28;20444;-79
2021/03/27 08:56:39;;;;;;;5.27;3.73;;;6.60;99.90;;;;;;5060269;28;20424;-79
2021/03/27 08:59:20;;;;;;;6.27;3.90;;;6.60;99.90;;;;;;5091096;28;20380;-79
2021/03/27 09:01:52;;;;;;;6.60;3.73;;;6.70;99.90;;;;;;5107978;27;20666;-79
2021/03/27 09:04:39;;;;;;;6.93;3.70;;;6.40;99.90;;;;;;5087811;28;20963;-79
2021/03/27 09:07:12;;;;;;;6.07;4.93;;;6.40;99.90;;;;;;5074742;28;20417;-79
2021/03/27 09:10:14;;;;;;;7.83;4.90;;;6.90;99.90;;;;;;5102558;27;20385;-79
2021/03/27 09:12:55;;;;;;;4.60;3.80;;;7.40;99.90;;;;;;5081445;28;20505;-79
2021/03/27 09:15:30;;;;;;;4.33;3.93;;;7.00;99.90;;;;;;5089634;28;20426;-79
2021/03/27 09:18:19;;;;;;;9.13;4.80;;;6.80;99.90;;;;;;5077364;27;20403;-79
2021/03/27 09:21:11;;;;;;;9.33;4.37;;;8.10;99.90;;;;;;5050727;28;20417;-79
2021/03/27 09:24:15;;;;;;;17.07;7.00;;;9.10;99.90;;;;;;5106530;27;20793;-79
2021/03/27 09:27:08;;;;;;;37.50;4.83;;;10.30;99.90;;;;;;5075423;27;21278;-79
2021/03/27 09:30:04;;;;;;;5.97;3.53;;;10.40;99.90;;;;;;5095758;28;20841;-80
2021/03/27 09:32:45;;;;;;;12.53;4.30;;;10.40;99.90;;;;;;5088686;27;20415;-80
2021/03/27 09:35:29;;;;;;;9.10;4.40;;;10.80;99.90;;;;;;5074571;28;20417;-80
2021/03/27 09:38:32;;;;;;;9.23;4.70;;;11.80;99.90;;;;;;5087425;28;20484;-80
2021/03/27 09:41:16;;;;;;;7.50;3.90;;;11.00;99.90;;;;;;5086496;27;20999;-80
2021/03/27 09:44:11;;;;;;;10.23;4.50;;;9.10;99.90;;;;;;5070572;28;20958;-80
2021/03/27 09:47:00;;;;;;;11.37;5.00;;;7.50;99.90;;;;;;5062674;27;20427;-80
2021/03/27 09:49:57;;;;;;;5.73;3.80;;;6.70;99.90;;;;;;5084906;27;20436;-80
2021/03/27 09:52:34;;;;;;;2.50;2.00;;;6.60;99.90;;;;;;5086611;27;20345;-78
2021/03/27 09:55:00;;;;;;;2.13;1.60;;;5.20;99.90;;;;;;5099516;27;20424;-78
2021/03/27 09:57:35;;;;;;;3.60;1.73;;;4.60;99.90;;;;;;5107956;27;20440;-78
2021/03/27 10:00:21;;;;;;;12.33;1.80;;;4.30;99.90;;;;;;5104640;27;21018;-78
2021/03/27 10:03:13;;;;;;;3.00;1.80;;;3.80;99.90;;;;;;5071419;27;20387;-79
2021/03/27 10:05:52;;;;;;;4.97;1.83;;;3.50;99.90;;;;;;5086485;27;20396;-78
2021/03/27 10:08:25;;;;;;;4.67;2.90;;;3.40;99.90;;;;;;5106401;27;20951;-79
2021/03/27 10:10:53;;;;;;;2.80;2.10;;;3.60;99.90;;;;;;5065959;27;20393;-79
2021/03/27 10:13:37;;;;;;;2.23;1.43;;;3.70;99.90;;;;;;5066832;27;20372;-79
2021/03/27 10:16:07;;;;;;;2.17;1.80;;;3.80;99.90;;;;;;5083376;27;20452;-79
2021/03/27 10:18:55;;;;;;;2.37;2.17;;;3.70;99.90;;;;;;5087373;27;21374;-80
2021/03/27 10:21:43;;;;;;;2.60;2.40;;;3.50;99.90;;;;;;5089510;27;20468;-80
2021/03/27 10:24:19;;;;;;;4.37;2.67;;;3.70;99.90;;;;;;5095615;27;20463;-81
2021/03/27 10:27:07;;;;;;;3.03;2.80;;;3.50;99.90;;;;;;5107658;27;20429;-81
2021/03/27 10:29:44;;;;;;;8.43;3.70;;;3.50;99.90;;;;;;5089252;27;20380;-80
2021/03/27 10:32:29;;;;;;;6.87;4.63;;;3.70;99.90;;;;;;5082061;28;20529;-80
2021/03/27 10:35:25;;;;;;;5.47;2.67;;;3.80;99.90;;;;;;5073587;28;20429;-79
2021/03/27 10:38:05;;;;;;;17.27;2.80;;;3.70;99.90;;;;;;5105671;27;20433;-79
2021/03/27 10:40:45;;;;;;;8.50;3.87;;;3.70;99.90;;;;;;5104471;27;20425;-79
2021/03/27 10:43:29;;;;;;;8.13;3.50;;;3.70;99.90;;;;;;5073925;28;20418;-79
2021/03/27 10:46:35;;;;;;;14.13;4.43;;;3.90;99.90;;;;;;5072038;27;20422;-79
2021/03/27 10:49:11;;;;;;;8.47;3.80;;;4.70;99.90;;;;;;5034620;28;20390;-80
2021/03/27 10:51:49;;;;;;;7.60;3.20;;;6.60;99.90;;;;;;5054970;28;20613;-80
2021/03/27 10:54:38;;;;;;;6.63;4.30;;;7.50;99.90;;;;;;5053670;28;20422;-80
2021/03/27 10:57:31;;;;;;;4.73;3.43;;;7.10;99.90;;;;;;5053096;28;20550;-81
2021/03/27 11:00:33;;;;;;;9.00;4.13;;;6.70;99.90;;;;;;5053222;28;20815;-80
2021/03/27 11:03:27;;;;;;;6.70;4.53;;;6.20;99.90;;;;;;5034855;28;20416;-80
2021/03/27 11:06:43;;;;;;;10.70;4.40;;;6.10;99.90;;;;;;5052628;28;20435;-79
2021/03/27 11:09:28;;;;;;;4.80;3.50;;;6.00;99.90;;;;;;5043275;28;20414;-79
2021/03/27 11:12:06;;;;;;;6.50;3.60;;;6.30;99.90;;;;;;5033897;28;20418;-79
2021/03/27 11:14:52;;;;;;;9.00;3.50;;;6.40;99.90;;;;;;5036877;28;20517;-79
2021/03/27 11:17:49;;;;;;;9.70;4.63;;;7.00;99.90;;;;;;5048142;28;20429;-79
2021/03/27 11:20:29;;;;;;;5.73;3.03;;;8.90;99.90;;;;;;5048406;28;20362;-79
2021/03/27 11:23:50;;;;;;;6.83;3.77;;;10.50;99.90;;;;;;5057092;28;21758;-80
2021/03/27 11:26:25;;;;;;;6.97;3.53;;;11.10;99.90;;;;;;5048208;28;20442;-80
2021/03/27 11:28:59;;;;;;;2.63;2.43;;;11.60;99.90;;;;;;5034126;28;20410;-80
2021/03/27 11:31:38;;;;;;;3.87;3.57;;;11.10;99.90;;;;;;5083452;27;20453;-79
2021/03/27 11:34:21;;;;;;;10.30;3.70;;;9.30;99.90;;;;;;5088113;28;20928;-80
2021/03/27 11:36:55;;;;;;;6.30;4.13;;;8.70;99.90;;;;;;5086989;28;20982;-79
2021/03/27 11:39:39;;;;;;;8.50;4.83;;;7.70;99.90;;;;;;5091590;27;20417;-80
2021/03/27 11:42:16;;;;;;;5.73;4.30;;;7.10;99.90;;;;;;5073444;28;20373;-80
2021/03/27 11:44:52;;;;;;;4.83;3.90;;;7.30;99.90;;;;;;5091835;27;20434;-80
2021/03/27 11:47:57;;;;;;;4.90;4.27;;;8.40;99.90;;;;;;5085923;27;20413;-80
2021/03/27 11:51:00;;;;;;;9.33;4.00;;;10.00;99.90;;;;;;5091533;27;20495;-81
2021/03/27 11:53:59;;;;;;;4.60;2.83;;;9.90;99.90;;;;;;5078486;28;20420;-80
2021/03/27 11:57:01;;;;;;;7.20;4.60;;;10.90;99.90;;;;;;5108805;27;20494;-79
2021/03/27 12:02:57;;;;;;;8.27;3.70;;;10.80;99.90;;;;;;5090125;27;20360;-81
2021/03/27 12:05:38;;;;;;;7.37;4.63;;;10.20;99.90;;;;;;5075016;28;20360;-79
2021/03/27 12:08:31;;;;;;;6.07;3.90;;;9.10;99.90;;;;;;5090545;27;20418;-80
2021/03/27 12:11:19;;;;;;;3.90;3.10;;;9.10;99.90;;;;;;5077142;28;20451;-81
2021/03/27 12:14:30;;;;;;;5.90;3.50;;;8.70;99.90;;;;;;5091729;28;20428;-81
2021/03/27 12:17:19;;;;;;;5.33;3.37;;;8.90;99.90;;;;;;5047791;28;20412;-80
2021/03/27 12:20:03;;;;;;;10.63;3.77;;;8.90;99.90;;;;;;5062019;28;20557;-80
2021/03/27 12:22:47;;;;;;;4.37;3.80;;;10.40;99.90;;;;;;5071166;28;20356;-81
2021/03/27 12:25:46;;;;;;;5.77;3.40;;;11.80;99.60;;;;;;5072325;28;20439;-81
2021/03/27 12:28:41;;;;;;;7.73;3.00;;;11.50;97.70;;;;;;5082066;28;20401;-81
2021/03/27 12:31:07;;;;;;;6.53;3.23;;;12.20;98.50;;;;;;5072272;28;20427;-81
2021/03/27 12:33:58;;;;;;;4.70;3.00;;;12.00;95.10;;;;;;5090836;28;20440;-80
2021/03/27 12:37:01;;;;;;;4.70;3.00;;;10.90;92.40;;;;;;5086484;28;20216;-80
2021/03/27 12:39:44;;;;;;;5.10;2.30;;;10.00;95.50;;;;;;5105986;28;20401;-80
2021/03/27 12:42:15;;;;;;;5.93;2.90;;;9.70;94.40;;;;;;5075474;28;20437;-81
2021/03/27 12:44:53;;;;;;;5.60;2.47;;;9.60;95.60;;;;;;5082850;28;20838;-80
2021/03/27 12:47:37;;;;;;;11.37;3.40;;;10.20;96.30;;;;;;5109133;27;20418;-80
2021/03/27 12:50:43;;;;;;;10.47;4.03;;;9.50;97.40;;;;;;5102859;28;20884;-80
2021/03/27 12:53:40;;;;;;;7.90;3.97;;;9.20;99.40;;;;;;5070178;28;20409;-79
2021/03/27 12:56:35;;;;;;;5.20;3.10;;;9.00;99.90;;;;;;5089601;28;20898;-80
2021/03/27 12:59:23;;;;;;;5.33;2.97;;;8.80;99.90;;;;;;5089067;28;20412;-79
2021/03/27 13:02:00;;;;;;;5.53;4.13;;;7.80;99.90;;;;;;5104973;27;20360;-79
2021/03/27 13:05:02;;;;;;;8.57;5.27;;;7.20;99.90;;;;;;5107202;27;20827;-79
2021/03/27 13:07:47;;;;;;;6.97;4.20;;;7.00;99.90;;;;;;5070598;27;20396;-80
2021/03/27 13:10:26;;;;;;;8.40;4.10;;;7.20;99.90;;;;;;5067770;27;20377;-80
2021/03/27 13:13:35;;;;;;;7.67;4.00;;;7.30;99.90;;;;;;5085951;28;20532;-80
2021/03/27 13:16:24;;;;;;;8.37;3.27;;;7.40;99.90;;;;;;5066115;28;20436;-80
2021/03/27 13:19:32;;;;;;;4.93;3.13;;;8.00;99.90;;;;;;5104220;27;20437;-79
2021/03/27 13:22:06;;;;;;;6.83;2.93;;;9.40;99.90;;;;;;5106246;28;20500;-81
2021/03/27 13:24:35;;;;;;;3.97;2.33;;;10.20;99.90;;;;;;5092080;27;20388;-81
2021/03/27 13:27:28;;;;;;;2.80;1.67;;;10.70;99.90;;;;;;5097998;28;20909;-81
2021/03/27 13:30:10;;;;;;;4.07;1.50;;;10.90;96.50;;;;;;5042785;27;20384;-81
2021/03/27 13:32:41;;;;;;;2.90;1.67;;;11.20;95.90;;;;;;5093940;27;20451;-81
2021/03/27 13:35:18;;;;;;;5.57;2.23;;;11.40;91.20;;;;;;5078049;28;21179;-81
2021/03/27 13:38:23;;;;;;;1.97;1.10;;;12.00;91.50;;;;;;5072816;28;20452;-81
2021/03/27 13:40:52;;;;;;;4.13;2.23;;;12.50;89.50;;;;;;5035372;28;20379;-81
2021/03/27 13:43:49;;;;;;;3.60;1.80;;;11.60;80.90;;;;;;5031164;28;20598;-81
2021/03/27 13:46:27;;;;;;;7.23;2.23;;;10.20;82.00;;;;;;5041324;28;20421;-81
2021/03/27 13:49:09;;;;;;;3.80;2.30;;;10.90;85.30;;;;;;5043403;28;20411;-81
2021/03/27 13:51:45;;;;;;;4.77;1.33;;;10.90;82.60;;;;;;5050976;28;20526;-80
2021/03/27 13:54:14;;;;;;;5.50;1.70;;;10.80;83.30;;;;;;5030364;28;20614;-81
2021/03/27 13:56:56;;;;;;;5.33;1.90;;;10.90;81.10;;;;;;5066070;28;20402;-81
2021/03/27 13:59:43;;;;;;;4.90;2.43;;;10.50;80.00;;;;;;5031002;28;20450;-81
2021/03/27 14:02:32;;;;;;;2.30;1.50;;;10.60;79.80;;;;;;5064710;28;20389;-80
2021/03/27 14:05:25;;;;;;;6.10;1.90;;;10.10;80.00;;;;;;5048590;28;20542;-80
2021/03/27 14:08:03;;;;;;;5.00;2.07;;;10.50;81.80;;;;;;5049590;28;20377;-80
2021/03/27 14:10:48;;;;;;;2.90;1.87;;;11.30;80.60;;;;;;5045536;28;20415;-80
2021/03/27 14:13:17;;;;;;;5.80;2.40;;;11.30;80.80;;;;;;5046599;28;20362;-80
2021/03/27 14:16:04;;;;;;;2.60;1.60;;;11.90;80.50;;;;;;5059520;27;20448;-80
2021/03/27 14:18:57;;;;;;;4.37;1.50;;;11.70;75.60;;;;;;5089025;27;20439;-80
2021/03/27 14:22:00;;;;;;;2.03;1.20;;;11.70;71.60;;;;;;5089002;28;20523;-80
2021/03/27 14:24:40;;;;;;;1.43;1.00;;;11.50;70.20;;;;;;5106647;27;20431;-80
2021/03/27 14:27:32;;;;;;;2.13;1.80;;;11.60;71.70;;;;;;5072982;28;20389;-80
2021/03/27 14:30:19;;;;;;;6.47;1.50;;;11.90;71.30;;;;;;5096599;28;20428;-80
2021/03/27 14:33:20;;;;;;;8.43;2.40;;;11.60;69.60;;;;;;5109174;27;20781;-80